WMKP/PEN METAR and TAF weather

Enter ICAO airport designator
Station Type Date Time Source
WMKP METAR 2020/09/23 02:30 UTC NOAA

WMKP 230230Z 13004KT 070V170 8000 FEW020 30/25 Q1011 NOSIG


Station Type Date Time Source
WMKP Decoded METAR 2020/09/23 02:30 UTC NOAA

Penang / Bayan Lepas, Malaysia (WMKP) 05-18N 100-16E 4M
Sep 22, 2020 - 10:30 PM EDT / 2020.09.23 0230 UTC
Wind: from the SE (130 degrees) at 5 MPH (4 KT) (direction variable):0
Visibility: 4 mile(s):0
Sky conditions: mostly clear
Temperature: 86 F (30 C)
Heat index: 96.8 F (36.0 C):1
Dew Point: 77 F (25 C)
Relative Humidity: 74%
Pressure (altimeter): 29.85 in. Hg (1011 hPa)
ob: WMKP 230230Z 13004KT 070V170 8000 FEW020 30/25 Q1011 NOSIG
cycle: 2

Station Type Date Time Source
WMKP TAF 2020/09/22 18:12 UTC NOAA

TAF WMKP 221700Z 2218/2318 VRB03KT 8000 FEW025
TEMPO 2220/2300 5000 TSRA FEW010 FEW017CB
BECMG 2304/2306 24010KT 9000 FEW020 PROB30
TEMPO 2308/2312 6000 -TSRA FEW010 FEW017CB

Example: see airport list